Time;durP1;ratioP1;P1;durP2;ratioP2;P2;SDS_P1;SDS_P2;PMS_P1;PMS_P2;Temp;Humidity;BMP_temperature;BMP_pressure;BME280_temperature;BME280_humidity;BME280_pressure;Samples;Min_cycle;Max_cycle;Signal;HPM_P1;HPM_P2
2023/10/13 00:01:22;;;;;;;16.85;8.95;;;;;;;15.02;52.56;95410.09;5072982;28;20216;-77
2023/10/13 00:03:48;;;;;;;11.90;8.73;;;;;;;15.02;52.77;95407.44;5074506;28;20216;-78
2023/10/13 00:06:15;;;;;;;12.02;9.60;;;;;;;15.09;52.42;95408.44;5079456;28;20219;-77
2023/10/13 00:08:41;;;;;;;12.52;8.85;;;;;;;14.97;52.57;95402.69;5078070;28;20192;-78
2023/10/13 00:11:09;;;;;;;11.95;8.55;;;;;;;14.94;52.82;95394.22;5081875;28;20180;-78
2023/10/13 00:13:55;;;;;;;13.55;9.23;;;;;;;14.95;52.34;95402.00;5090258;28;20204;-78
2023/10/13 00:16:21;;;;;;;12.30;8.65;;;;;;;14.96;52.77;95403.66;5072702;28;20333;-78
2023/10/13 00:18:50;;;;;;;13.98;8.45;;;;;;;14.79;53.13;95396.75;5080635;28;20225;-78
2023/10/13 00:21:19;;;;;;;15.90;9.77;;;;;;;14.75;53.30;95388.34;5081176;28;20219;-79
2023/10/13 00:23:55;;;;;;;16.50;9.45;;;;;;;14.58;53.97;95396.47;5074348;28;20231;-79
2023/10/13 00:26:28;;;;;;;11.35;8.55;;;;;;;14.69;53.49;95396.94;5089398;28;20280;-80
2023/10/13 00:31:42;;;;;;;10.75;9.02;;;;;;;14.63;53.61;95391.50;5069589;28;20216;-78
2023/10/13 00:34:12;;;;;;;12.48;8.18;;;;;;;14.65;53.43;95394.78;5070645;28;20277;-77
2023/10/13 00:39:28;;;;;;;11.55;8.50;;;;;;;14.54;54.02;95396.78;5073476;28;20282;-77
2023/10/13 00:41:59;;;;;;;15.23;9.15;;;;;;;14.37;54.58;95395.09;5087459;28;20217;-78
2023/10/13 00:44:43;;;;;;;16.58;9.68;;;;;;;14.05;55.60;95403.84;5078666;28;20231;-78
2023/10/13 00:47:16;;;;;;;15.77;9.90;;;;;;;14.10;55.29;95407.66;5057199;28;20212;-77
2023/10/13 00:49:47;;;;;;;13.27;9.30;;;;;;;13.94;55.88;95402.34;5062511;28;20317;-77
2023/10/13 00:52:15;;;;;;;13.68;8.90;;;;;;;13.94;55.72;95407.63;5075511;28;20311;-78
2023/10/13 00:54:46;;;;;;;13.48;8.95;;;;;;;13.47;57.30;95400.25;5079139;28;20606;-78
2023/10/13 00:57:27;;;;;;;10.43;8.68;;;;;;;13.55;57.03;95399.44;5090450;28;20217;-78
2023/10/13 00:59:55;;;;;;;12.93;9.07;;;;;;;13.72;56.54;95397.69;5076002;28;20266;-77
2023/10/13 01:05:03;;;;;;;10.38;8.35;;;;;;;13.76;56.42;95407.75;5058491;28;20691;-80
2023/10/13 01:07:28;;;;;;;12.55;8.95;;;;;;;13.78;55.97;95405.78;5064848;28;20754;-78
2023/10/13 01:09:55;;;;;;;11.13;7.97;;;;;;;13.81;56.36;95402.00;5053882;28;20329;-79
2023/10/13 01:12:23;;;;;;;13.80;8.35;;;;;;;13.78;56.20;95399.69;5070584;28;20224;-79
2023/10/13 01:14:49;;;;;;;12.80;8.80;;;;;;;13.81;56.41;95404.63;5056017;28;20197;-79
2023/10/13 01:17:14;;;;;;;11.43;8.80;;;;;;;13.62;56.82;95406.56;5065311;28;20204;-78
2023/10/13 01:19:42;;;;;;;12.65;9.40;;;;;;;13.86;55.92;95407.63;5070644;28;20217;-80
2023/10/13 01:22:09;;;;;;;12.02;8.00;;;;;;;13.92;55.86;95406.97;5058274;28;20220;-80
2023/10/13 01:24:35;;;;;;;13.10;9.10;;;;;;;13.76;56.11;95409.59;5058631;28;20225;-80
2023/10/13 01:27:25;;;;;;;12.23;8.02;;;;;;;13.84;55.80;95407.78;5055694;28;20232;-80
2023/10/13 01:29:55;;;;;;;10.30;8.23;;;;;;;13.86;55.85;95408.44;5056184;28;20296;-81
2023/10/13 01:32:23;;;;;;;11.55;8.20;;;;;;;13.93;55.51;95410.47;5068091;28;20181;-81
2023/10/13 01:34:54;;;;;;;12.63;9.30;;;;;;;13.99;54.89;95404.50;5075357;28;20214;-80
2023/10/13 01:37:20;;;;;;;10.07;7.95;;;;;;;14.06;55.09;95401.06;5057468;28;20221;-80
2023/10/13 01:39:49;;;;;;;12.80;7.40;;;;;;;14.04;54.97;95405.69;5042726;28;20295;-80
2023/10/13 01:42:21;;;;;;;11.70;8.25;;;;;;;14.05;54.60;95407.31;5055828;28;20212;-80
2023/10/13 01:44:48;;;;;;;14.18;7.82;;;;;;;14.02;55.13;95422.69;5058121;28;20254;-80
2023/10/13 01:47:16;;;;;;;12.13;8.10;;;;;;;13.69;56.19;95412.06;5059154;28;20187;-80
2023/10/13 01:49:42;;;;;;;14.35;8.75;;;;;;;13.87;55.68;95411.91;5069313;28;20279;-80
2023/10/13 01:52:11;;;;;;;12.73;8.75;;;;;;;13.73;55.99;95409.91;5068869;28;20209;-80
2023/10/13 01:54:40;;;;;;;12.30;7.93;;;;;;;13.76;55.89;95417.50;5056212;28;20239;-80
2023/10/13 01:57:06;;;;;;;11.10;8.23;;;;;;;13.63;56.23;95421.47;5070257;28;20266;-81
2023/10/13 01:59:32;;;;;;;13.60;8.55;;;;;;;13.64;56.22;95409.88;5062997;28;20188;-82
2023/10/13 02:02:00;;;;;;;11.55;8.50;;;;;;;13.57;56.31;95406.22;5058538;28;20227;-81
2023/10/13 02:04:27;;;;;;;14.60;8.90;;;;;;;13.62;55.87;95409.22;5052742;28;20248;-80
2023/10/13 02:06:52;;;;;;;12.93;8.23;;;;;;;13.70;55.72;95405.78;5071430;28;20229;-78
2023/10/13 02:09:27;;;;;;;10.27;8.38;;;;;;;13.79;55.31;95398.69;5058713;28;20232;-80
2023/10/13 02:11:56;;;;;;;13.18;7.70;;;;;;;13.74;55.71;95395.69;5057482;28;20191;-80
2023/10/13 02:14:23;;;;;;;12.45;8.30;;;;;;;13.58;55.83;95397.31;5057495;28;20199;-79
2023/10/13 02:16:50;;;;;;;12.88;8.75;;;;;;;13.63;55.71;95395.03;5062962;28;20304;-80
2023/10/13 02:19:19;;;;;;;13.90;8.43;;;;;;;13.67;55.66;95400.81;5061649;28;20669;-79
2023/10/13 02:21:45;;;;;;;13.55;8.93;;;;;;;13.53;56.05;95399.63;5060779;28;20209;-80
2023/10/13 02:24:17;;;;;;;13.05;8.13;;;;;;;13.49;55.70;95395.63;5063626;28;20224;-79
2023/10/13 02:26:44;;;;;;;14.35;8.52;;;;;;;13.44;56.29;95397.94;5058702;28;20671;-81
2023/10/13 02:29:13;;;;;;;11.55;8.85;;;;;;;13.56;55.56;95398.47;5064480;28;20165;-82
2023/10/13 02:31:42;;;;;;;14.00;8.75;;;;;;;13.46;56.18;95404.69;5058204;28;20217;-81
2023/10/13 02:34:08;;;;;;;13.63;8.65;;;;;;;13.45;56.07;95405.69;5051617;28;20221;-81
2023/10/13 02:36:48;;;;;;;12.80;8.65;;;;;;;13.41;56.42;95400.88;5055156;28;20224;-78
2023/10/13 02:39:16;;;;;;;10.32;8.00;;;;;;;13.32;56.61;95399.22;5059703;28;20224;-79
2023/10/13 02:41:47;;;;;;;11.80;8.57;;;;;;;13.27;56.73;95396.22;5068348;28;20182;-78
2023/10/13 02:44:20;;;;;;;10.52;8.23;;;;;;;13.25;56.82;95394.53;5056748;28;20215;-79
2023/10/13 02:46:50;;;;;;;11.65;8.35;;;;;;;13.32;56.88;95407.97;5053636;28;20221;-79
2023/10/13 02:49:19;;;;;;;11.75;8.43;;;;;;;13.41;56.46;95404.34;5059852;28;20433;-79
2023/10/13 02:51:45;;;;;;;11.88;8.98;;;;;;;13.09;57.04;95406.84;5063216;28;20216;-78
2023/10/13 02:54:11;;;;;;;11.18;9.40;;;;;;;12.99;57.55;95418.34;5056434;28;20217;-79
2023/10/13 02:56:38;;;;;;;13.75;9.23;;;;;;;13.08;57.37;95427.13;5069512;28;20256;-78
2023/10/13 02:59:04;;;;;;;10.68;8.93;;;;;;;12.63;58.73;95422.06;5058503;28;20192;-79
2023/10/13 03:01:33;;;;;;;14.18;9.05;;;;;;;12.72;58.37;95421.13;5090431;28;20212;-79
2023/10/13 03:04:00;;;;;;;12.48;8.77;;;;;;;12.85;57.97;95423.38;5075399;28;20212;-79
2023/10/13 03:06:32;;;;;;;11.10;8.73;;;;;;;12.99;57.49;95426.25;5088130;28;20273;-79
2023/10/13 03:09:15;;;;;;;15.88;9.10;;;;;;;12.76;58.07;95423.31;5073778;28;20228;-79
2023/10/13 03:11:50;;;;;;;11.40;8.93;;;;;;;12.55;58.60;95423.66;5072243;28;20226;-79
2023/10/13 03:14:25;;;;;;;11.65;8.57;;;;;;;12.79;57.86;95425.63;5073468;28;20204;-80
2023/10/13 03:16:52;;;;;;;10.85;8.48;;;;;;;12.55;58.69;95430.75;5089496;28;20361;-80
2023/10/13 03:19:19;;;;;;;12.00;8.90;;;;;;;12.66;58.51;95427.03;5081408;28;20212;-79
2023/10/13 03:21:46;;;;;;;11.70;8.45;;;;;;;12.87;57.94;95430.13;5080588;28;20223;-79
2023/10/13 03:24:13;;;;;;;15.07;9.13;;;;;;;12.78;57.97;95431.09;5074505;28;20228;-78
2023/10/13 03:26:44;;;;;;;11.52;8.48;;;;;;;12.74;58.08;95433.19;5074353;28;20485;-78
2023/10/13 03:29:13;;;;;;;9.90;8.50;;;;;;;12.69;58.44;95424.91;5079511;28;20527;-80
2023/10/13 03:31:39;;;;;;;12.52;9.48;;;;;;;12.74;58.32;95430.53;5073977;28;20227;-78
2023/10/13 03:34:09;;;;;;;12.35;8.35;;;;;;;12.88;58.01;95430.97;5072764;28;20208;-82
2023/10/13 03:39:22;;;;;;;13.57;9.13;;;;;;;12.93;57.69;95426.88;5077327;28;20511;-77
2023/10/13 03:41:53;;;;;;;10.32;8.02;;;;;;;12.98;57.49;95429.88;5070348;28;20184;-78
2023/10/13 03:44:18;;;;;;;10.18;7.95;;;;;;;12.93;57.73;95415.50;5076698;28;20617;-78
2023/10/13 03:46:47;;;;;;;12.77;8.60;;;;;;;12.91;57.21;95402.47;5078349;28;20216;-78
2023/10/13 03:49:21;;;;;;;11.18;8.45;;;;;;;13.00;56.92;95413.88;5073316;28;20237;-78
2023/10/13 03:51:47;;;;;;;16.83;8.93;;;;;;;12.78;57.30;95409.97;5073791;28;20219;-77
2023/10/13 03:54:16;;;;;;;16.55;8.38;;;;;;;12.87;57.39;95406.38;5091258;28;20231;-78
2023/10/13 03:56:44;;;;;;;12.02;8.77;;;;;;;12.90;57.19;95405.25;5072756;28;20180;-79
2023/10/13 03:59:17;;;;;;;9.48;8.40;;;;;;;12.92;57.13;95395.38;5063036;28;20180;-79
2023/10/13 04:01:47;;;;;;;12.65;8.10;;;;;;;12.84;57.31;95392.69;5076806;28;20292;-80
2023/10/13 04:04:15;;;;;;;12.95;8.65;;;;;;;12.95;56.94;95384.50;5085947;28;20273;-78
2023/10/13 04:17:23;;;;;;;13.75;9.98;;;;;;;12.41;58.63;95381.19;5075256;28;20246;-77
2023/10/13 04:33:44;;;;;;;19.80;10.68;;;;;;;12.38;58.96;95405.25;5081119;28;20222;-73
2023/10/13 04:41:41;;;;;;;18.00;10.27;;;;;;;11.91;60.14;95414.22;5076146;28;20176;-79
2023/10/13 04:49:29;;;;;;;19.30;10.20;;;;;;;12.03;59.87;95425.34;5072977;28;20220;-73
2023/10/13 04:57:49;;;;;;;21.63;10.68;;;;;;;12.03;59.98;95434.13;5074779;28;20373;-75
2023/10/13 05:51:33;;;;;;;20.00;12.68;;;;;;;13.06;58.33;95491.63;5080076;28;20224;-79
2023/10/13 06:29:46;;;;;;;15.73;11.95;;;;;;;14.09;55.96;95516.25;5051380;28;20211;-75
2023/10/13 06:32:12;;;;;;;19.63;11.93;;;;;;;14.06;55.77;95520.06;5078934;28;20260;-75
2023/10/13 06:34:42;;;;;;;22.48;12.68;;;;;;;14.10;55.60;95517.91;5057318;28;20221;-74
2023/10/13 06:37:26;;;;;;;17.95;12.35;;;;;;;14.17;55.63;95518.09;5071182;28;20216;-76
2023/10/13 06:39:56;;;;;;;16.70;12.32;;;;;;;14.16;55.39;95511.97;5071217;28;20250;-75
2023/10/13 06:42:28;;;;;;;14.07;11.52;;;;;;;14.31;54.66;95506.88;5071228;28;20543;-79
2023/10/13 06:45:00;;;;;;;12.30;11.02;;;;;;;14.41;54.79;95518.16;5078732;28;20303;-78
2023/10/13 06:47:27;;;;;;;16.08;9.70;;;;;;;14.50;54.31;95514.50;5090231;28;20232;-74
2023/10/13 06:49:54;;;;;;;16.10;10.15;;;;;;;14.54;54.27;95518.53;5076184;28;20290;-76
2023/10/13 06:52:23;;;;;;;14.20;9.77;;;;;;;14.67;53.72;95515.38;5077058;28;20216;-76
2023/10/13 06:54:55;;;;;;;12.15;9.98;;;;;;;14.80;53.56;95511.41;5070564;28;20227;-76
2023/10/13 06:57:21;;;;;;;16.90;10.32;;;;;;;14.84;53.77;95515.41;5077927;28;20228;-72
2023/10/13 06:59:47;;;;;;;17.27;11.60;;;;;;;14.95;53.49;95509.75;5071140;28;20189;-77
2023/10/13 07:02:21;;;;;;;18.02;12.55;;;;;;;14.91;53.78;95509.25;5075187;28;20181;-73
2023/10/13 07:05:11;;;;;;;23.13;13.50;;;;;;;14.91;53.58;95503.94;5078380;28;20220;-76
2023/10/13 07:07:38;;;;;;;18.55;13.77;;;;;;;14.98;53.25;95482.94;5073283;28;20265;-73
2023/10/13 07:10:08;;;;;;;18.63;12.80;;;;;;;15.08;52.82;95485.41;5073861;28;20219;-76
2023/10/13 07:12:34;;;;;;;20.40;13.93;;;;;;;15.08;52.81;95483.59;5088416;28;20220;-76
2023/10/13 07:15:10;;;;;;;22.95;13.60;;;;;;;15.20;52.46;95487.53;5074889;28;20278;-80
2023/10/13 07:17:39;;;;;;;17.88;13.63;;;;;;;15.04;53.06;95484.91;5077654;28;20194;-81
2023/10/13 07:20:14;;;;;;;18.33;13.30;;;;;;;15.30;52.17;95492.66;5074448;28;20180;-77
2023/10/13 07:22:45;;;;;;;19.27;13.27;;;;;;;15.47;51.99;95495.25;5072977;28;20216;-77
2023/10/13 07:25:18;;;;;;;17.90;13.80;;;;;;;15.62;51.80;95498.84;5070946;28;20213;-78
2023/10/13 07:27:43;;;;;;;16.73;12.60;;;;;;;15.62;52.00;95498.84;5072319;28;20229;-75
2023/10/13 07:32:38;;;;;;;28.83;12.93;;;;;;;15.69;51.57;95499.88;5076470;28;20197;-79
2023/10/13 07:35:07;;;;;;;14.93;11.90;;;;;;;15.81;50.73;95476.44;5168318;22;20245;-80
2023/10/13 07:37:33;;;;;;;33.72;20.95;;;;;;;15.91;50.60;95492.16;5054940;28;20212;-78
2023/10/13 07:39:58;;;;;;;21.02;13.98;;;;;;;16.06;50.28;95491.25;5061042;28;20302;-77
2023/10/13 07:42:31;;;;;;;16.20;12.35;;;;;;;16.16;49.92;95491.00;5052712;28;20260;-79
2023/10/13 07:44:58;;;;;;;17.80;12.70;;;;;;;16.26;49.59;95477.53;5058732;28;20220;-80
2023/10/13 07:47:26;;;;;;;16.60;12.68;;;;;;;16.31;49.36;95488.44;5050332;28;20215;-76
2023/10/13 07:49:52;;;;;;;17.80;11.20;;;;;;;16.24;49.05;95471.56;5037953;28;20224;-75
2023/10/13 07:57:36;;;;;;;14.10;11.00;;;;;;;16.46;48.84;95476.03;5052519;28;20291;-75
2023/10/13 08:00:25;;;;;;;17.58;10.63;;;;;;;16.51;48.57;95470.22;5052152;28;20309;-74
2023/10/13 08:03:09;;;;;;;19.65;10.43;;;;;;;16.61;48.59;95472.66;5053468;28;20195;-77
2023/10/13 08:05:55;;;;;;;15.20;11.27;;;;;;;16.60;48.50;95470.97;5053134;28;20199;-77
2023/10/13 08:08:25;;;;;;;18.10;10.98;;;;;;;16.73;48.69;95473.84;5051615;28;20268;-79
2023/10/13 08:10:55;;;;;;;14.02;11.43;;;;;;;16.70;48.86;95464.41;5049332;28;20274;-77
2023/10/13 08:13:21;;;;;;;17.02;11.10;;;;;;;16.97;48.40;95471.03;5050731;28;20217;-75
2023/10/13 08:15:47;;;;;;;17.38;11.07;;;;;;;17.13;48.12;95462.09;5055661;28;20248;-76
2023/10/13 08:18:31;;;;;;;18.75;11.82;;;;;;;17.31;47.40;95466.22;5056773;28;20208;-76
2023/10/13 08:21:03;;;;;;;14.82;11.82;;;;;;;17.48;46.80;95466.84;5057022;28;20221;-79
2023/10/13 08:24:15;;;;;;;17.88;12.68;;;;;;;17.61;46.34;95475.88;5055210;28;20268;-77
2023/10/13 08:35:23;;;;;;;19.50;12.75;;;;;;;17.81;45.96;95488.63;5054331;28;20300;-78
2023/10/13 09:12:35;;;;;;;24.42;15.75;;;;;;;18.92;44.69;95463.41;5080127;28;20227;-71
2023/10/13 09:15:59;;;;;;;17.52;14.15;;;;;;;19.04;44.47;95462.88;5064969;28;20219;-74
2023/10/13 09:17:53;;;;;;;24.25;13.23;;;;;;;19.24;44.26;95463.84;5075194;28;20200;-73
2023/10/13 09:23:25;;;;;;;21.27;13.93;;;;;;;19.42;44.14;95450.00;5081060;28;20308;-75
2023/10/13 09:25:57;;;;;;;17.63;12.20;;;;;;;19.68;43.50;95451.22;5048708;28;20236;-72
2023/10/13 09:28:25;;;;;;;22.92;13.38;;;;;;;19.80;43.14;95452.28;5062680;28;20216;-74
2023/10/13 09:30:59;;;;;;;20.23;12.90;;;;;;;19.95;42.86;95444.97;5061426;28;20212;-75
2023/10/13 09:33:50;;;;;;;19.10;12.98;;;;;;;20.08;43.75;95433.53;5077959;28;20235;-75
2023/10/13 09:36:16;;;;;;;18.70;13.48;;;;;;;20.16;42.12;95421.84;5062746;28;20264;-73
2023/10/13 09:38:48;;;;;;;16.27;12.55;;;;;;;20.21;42.28;95428.22;5057743;28;20200;-73
2023/10/13 09:41:26;;;;;;;17.92;12.80;;;;;;;20.43;41.22;95439.56;5061547;28;20192;-75
2023/10/13 09:43:52;;;;;;;17.70;12.27;;;;;;;20.54;40.32;95419.47;5058223;28;20275;-74
2023/10/13 09:46:23;;;;;;;18.60;12.20;;;;;;;20.65;40.46;95420.72;5060431;28;20427;-74
2023/10/13 09:49:07;;;;;;;16.15;12.80;;;;;;;20.87;40.74;95424.00;5063816;28;20304;-75
2023/10/13 09:51:33;;;;;;;21.45;12.48;;;;;;;20.90;40.57;95423.59;5066588;28;20334;-75
2023/10/13 09:54:09;;;;;;;15.60;10.68;;;;;;;20.86;41.24;95422.38;5058479;28;20242;-76
2023/10/13 09:56:51;;;;;;;20.50;11.45;;;;;;;20.80;39.76;95417.88;5064113;28;20222;-75
2023/10/13 09:59:23;;;;;;;15.15;10.45;;;;;;;20.79;40.75;95416.19;5062376;28;20191;-76
2023/10/13 10:01:51;;;;;;;11.98;9.82;;;;;;;20.81;39.82;95414.16;5065841;28;20237;-77
2023/10/13 10:04:19;;;;;;;18.27;11.23;;;;;;;21.02;38.66;95408.59;5060995;28;20212;-77
2023/10/13 10:06:56;;;;;;;16.13;10.32;;;;;;;21.03;39.26;95407.56;5075229;28;20229;-76
2023/10/13 10:09:36;;;;;;;14.57;10.38;;;;;;;21.18;40.11;95415.38;5066231;28;20585;-76
2023/10/13 10:12:08;;;;;;;17.10;10.43;;;;;;;21.32;39.96;95402.78;5077649;28;20216;-75
2023/10/13 10:14:55;;;;;;;17.45;9.95;;;;;;;21.55;38.10;95399.69;5067045;28;20563;-74
2023/10/13 10:17:21;;;;;;;16.30;9.63;;;;;;;21.56;38.78;95395.97;5079980;28;20210;-75
2023/10/13 10:20:05;;;;;;;16.95;11.07;;;;;;;21.64;38.12;95393.03;5061932;28;20266;-76
2023/10/13 10:22:36;;;;;;;12.35;9.38;;;;;;;21.79;38.92;95395.47;5063585;28;20225;-75
2023/10/13 10:28:01;;;;;;;13.63;7.43;;;;;;;22.10;37.68;95380.47;5017223;28;20307;-76
2023/10/13 10:30:28;;;;;;;15.32;7.32;;;;;;;22.22;36.40;95379.63;5017351;28;20922;-72
2023/10/13 10:33:01;;;;;;;11.57;7.75;;;;;;;22.38;35.20;95380.97;5018878;28;20226;-76
2023/10/13 10:35:32;;;;;;;9.05;5.10;;;;;;;22.54;34.46;95381.50;5009017;28;20541;-78
2023/10/13 10:38:11;;;;;;;7.22;5.15;;;;;;;22.68;33.90;95377.66;5019288;28;20226;-74
2023/10/13 10:40:51;;;;;;;7.57;5.10;;;;;;;22.87;32.70;95379.34;5003714;28;20341;-75
2023/10/13 10:43:18;;;;;;;10.40;5.40;;;;;;;23.13;31.13;95377.50;5006340;28;20222;-75
2023/10/13 10:45:50;;;;;;;10.07;5.40;;;;;;;23.16;30.54;95371.69;5007591;28;20218;-73
2023/10/13 10:48:20;;;;;;;10.55;5.85;;;;;;;23.21;30.82;95371.03;5002395;28;20225;-75
2023/10/13 10:50:56;;;;;;;12.93;6.03;;;;;;;23.34;31.21;95374.41;5006827;28;20217;-76
2023/10/13 10:56:23;;;;;;;10.02;5.30;;;;;;;23.41;33.28;95365.44;4959662;28;20242;-74
2023/10/13 10:59:02;;;;;;;8.60;5.65;;;;;;;23.54;31.25;95370.66;4964096;28;20230;-74
2023/10/13 11:01:46;;;;;;;8.52;5.68;;;;;;;23.55;31.03;95372.31;4949313;28;20307;-76
2023/10/13 11:04:18;;;;;;;7.00;4.82;;;;;;;23.66;29.93;95365.38;4973080;28;20219;-75
2023/10/13 11:06:57;;;;;;;9.13;4.95;;;;;;;23.48;31.32;95364.34;5003106;28;20308;-74
2023/10/13 11:12:26;;;;;;;10.38;5.13;;;;;;;23.57;31.08;95356.78;5006308;28;20242;-74
2023/10/13 11:15:33;;;;;;;8.38;4.70;;;;;;;23.50;32.38;95361.44;5001671;28;20298;-74
2023/10/13 11:17:58;;;;;;;5.25;4.75;;;;;;;23.70;31.81;95353.94;5006530;28;20222;-74
2023/10/13 11:20:33;;;;;;;7.82;4.35;;;;;;;23.73;32.90;95353.53;4985153;28;20199;-75
2023/10/13 11:22:59;;;;;;;5.72;3.90;;;;;;;23.89;31.61;95345.91;4993226;28;20218;-74
2023/10/13 11:25:29;;;;;;;6.55;3.65;;;;;;;23.96;30.59;95338.59;4980276;28;20302;-73
2023/10/13 11:27:58;;;;;;;6.80;3.63;;;;;;;24.06;30.59;95332.66;4986973;28;20227;-75
2023/10/13 11:30:25;;;;;;;7.05;3.78;;;;;;;24.16;30.31;95335.59;5004418;28;20218;-74
2023/10/13 11:32:58;;;;;;;6.43;3.80;;;;;;;24.25;30.20;95336.13;4995837;28;20212;-74
2023/10/13 11:35:23;;;;;;;5.47;4.10;;;;;;;24.37;29.60;95339.66;5021982;28;20375;-75
2023/10/13 11:38:25;;;;;;;9.48;4.53;;;;;;;24.43;29.37;95333.34;5024423;28;20222;-74
2023/10/13 11:40:59;;;;;;;7.53;3.85;;;;;;;24.50;29.86;95323.34;5031227;28;20330;-77
2023/10/13 11:43:26;;;;;;;6.93;3.90;;;;;;;24.30;29.86;95314.72;5019254;28;20717;-77
2023/10/13 11:46:12;;;;;;;6.10;3.95;;;;;;;24.29;29.08;95315.78;5027892;28;20233;-79
2023/10/13 11:48:43;;;;;;;7.28;4.22;;;;;;;24.42;29.01;95319.09;5045242;28;20220;-79
2023/10/13 11:51:16;;;;;;;7.53;4.30;;;;;;;24.55;29.75;95318.09;5082032;28;20216;-81
2023/10/13 11:53:44;;;;;;;6.95;3.67;;;;;;;24.79;27.92;95316.25;5073482;28;20272;-75
2023/10/13 11:56:09;;;;;;;7.55;3.47;;;;;;;24.73;27.76;95313.69;5061709;28;20613;-74
2023/10/13 11:58:36;;;;;;;6.32;4.43;;;;;;;24.83;28.62;95313.91;5061973;28;20291;-76
2023/10/13 12:06:35;;;;;;;5.38;3.80;;;;;;;25.33;29.29;95296.47;5075680;28;20651;-73
2023/10/13 12:11:54;;;;;;;13.07;4.35;;;;;;;25.75;26.53;95297.06;5076998;28;20231;-74
2023/10/13 12:14:21;;;;;;;12.27;3.60;;;;;;;25.74;27.35;95290.84;5058996;28;20206;-75
2023/10/13 12:16:51;;;;;;;6.25;4.20;;;;;;;25.92;27.31;95291.72;5061930;28;20213;-74
2023/10/13 12:19:23;;;;;;;8.13;4.00;;;;;;;26.23;27.14;95290.41;5064735;28;20217;-74
2023/10/13 12:21:49;;;;;;;7.82;3.60;;;;;;;26.71;24.31;95290.97;5062237;28;20290;-74
2023/10/13 12:24:39;;;;;;;6.53;5.03;;;;;;;27.03;26.57;95294.69;5055832;28;20219;-76
2023/10/13 12:27:19;;;;;;;6.57;3.70;;;;;;;28.00;23.54;95281.59;5062967;28;20224;-73
2023/10/13 12:29:46;;;;;;;7.53;3.75;;;;;;;29.57;22.22;95287.66;5066856;28;20250;-75
2023/10/13 12:32:13;;;;;;;5.65;3.33;;;;;;;31.00;20.82;95287.91;5074019;28;20236;-76
2023/10/13 12:35:27;;;;;;;7.18;3.95;;;;;;;32.33;18.60;95281.97;5075125;28;20216;-77
2023/10/13 12:51:50;;;;;;;7.72;4.60;;;;;;;37.30;13.93;95272.75;5076986;28;20278;-77
2023/10/13 12:54:06;;;;;;;5.60;5.10;;;;;;;38.73;13.45;95264.19;5079382;28;20240;-72
2023/10/13 12:56:32;;;;;;;6.20;5.68;;;;;;;39.58;12.64;95271.75;5080690;28;20563;-73
2023/10/13 12:58:57;;;;;;;8.18;5.28;;;;;;;39.94;12.63;95275.97;5082755;28;20548;-73
2023/10/13 13:01:32;;;;;;;5.35;4.85;;;;;;;40.71;11.01;95271.91;5065349;28;20223;-75
2023/10/13 13:03:58;;;;;;;9.48;5.60;;;;;;;41.25;10.56;95270.22;5078918;28;20246;-72
2023/10/13 13:06:29;;;;;;;6.47;5.75;;;;;;;41.52;9.92;95279.84;5064277;28;20239;-72
2023/10/13 13:08:57;;;;;;;7.15;6.55;;;;;;;41.59;10.17;95267.06;5078896;28;20228;-72
2023/10/13 13:11:23;;;;;;;7.38;6.78;;;;;;;41.69;10.43;95265.81;5060128;28;20269;-72
2023/10/13 13:13:49;;;;;;;9.07;8.30;;;;;;;42.16;9.75;95267.28;5061599;28;20318;-72
2023/10/13 13:16:18;;;;;;;8.65;8.05;;;;;;;42.62;9.64;95267.88;5059281;28;20715;-73
2023/10/13 13:18:44;;;;;;;13.43;12.40;;;;;;;42.89;9.17;95267.09;5062974;28;20338;-73
2023/10/13 13:21:12;;;;;;;10.30;9.68;;;;;;;42.44;8.90;95270.94;5064346;28;20757;-73
2023/10/13 13:23:39;;;;;;;11.20;10.23;;;;;;;42.91;8.82;95267.56;5061787;28;20192;-72
2023/10/13 13:26:15;;;;;;;14.90;13.80;;;;;;;42.72;8.34;95273.72;5062397;28;20279;-73
2023/10/13 13:28:44;;;;;;;17.75;16.42;;;;;;;43.27;8.92;95260.22;5058294;28;20220;-73
2023/10/13 13:31:12;;;;;;;21.55;20.38;;;;;;;43.80;8.32;95271.84;5079590;28;20204;-73
2023/10/13 13:33:43;;;;;;;26.70;25.02;;;;;;;44.21;9.18;95274.38;5065806;28;20281;-71
2023/10/13 13:36:15;;;;;;;34.30;32.50;;;;;;;44.42;8.53;95268.53;5046082;28;20286;-71
2023/10/13 13:38:49;;;;;;;34.38;32.47;;;;;;;44.13;8.22;95272.63;5056394;28;20204;-72
2023/10/13 13:41:16;;;;;;;1999.90;999.90;;;;;;;44.65;7.90;95269.44;5062866;28;20189;-74
2023/10/13 13:46:27;;;;;;;1999.90;999.90;;;;;;;44.99;8.30;95278.06;5074043;28;20681;-74
2023/10/13 13:49:06;;;;;;;1999.90;999.90;;;;;;;45.25;7.64;95273.78;5054984;28;20227;-75
2023/10/13 13:51:32;;;;;;;1999.90;999.90;;;;;;;45.58;7.24;95272.41;5059144;28;20220;-75
2023/10/13 13:53:59;;;;;;;1999.90;999.90;;;;;;;45.85;6.73;95274.06;5057347;28;20225;-74
2023/10/13 13:56:27;;;;;;;1999.90;999.90;;;;;;;45.02;7.45;95280.09;5075872;28;20193;-74
2023/10/13 13:58:53;;;;;;;1999.90;999.90;;;;;;;44.95;8.30;95274.41;5057229;28;20274;-74
2023/10/13 14:01:26;;;;;;;1999.90;999.90;;;;;;;44.87;7.94;95273.47;5058063;28;20407;-75
2023/10/13 14:03:56;;;;;;;1509.72;759.13;;;;;;;45.02;7.58;95274.53;5058333;28;20220;-74
2023/10/13 14:06:24;;;;;;;28.60;26.85;;;;;;;45.02;7.82;95279.28;5072433;28;20229;-75
2023/10/13 14:08:56;;;;;;;21.80;20.35;;;;;;;44.45;8.06;95271.38;5058278;28;20180;-75
2023/10/13 14:17:03;;;;;;;14.52;13.38;;;;;;;42.38;8.89;95274.31;5039023;28;20606;-73
2023/10/13 14:19:29;;;;;;;11.52;10.68;;;;;;;42.13;9.14;95266.03;5036399;28;20222;-75
2023/10/13 14:21:59;;;;;;;11.57;10.75;;;;;;;41.94;9.69;95265.81;5038576;28;20235;-74
2023/10/13 14:24:33;;;;;;;8.90;8.07;;;;;;;42.63;9.08;95263.97;5022205;28;20214;-72
2023/10/13 14:27:09;;;;;;;9.13;8.43;;;;;;;43.35;8.95;95264.78;5021599;28;20244;-72
2023/10/13 14:29:40;;;;;;;9.57;8.57;;;;;;;43.71;8.60;95267.66;5022674;28;20299;-71
2023/10/13 14:32:12;;;;;;;10.23;7.70;;;;;;;43.93;8.41;95275.31;5022318;28;20190;-72
2023/10/13 14:34:42;;;;;;;8.63;7.38;;;;;;;43.94;8.50;95270.59;5014018;28;20257;-74
2023/10/13 14:37:08;;;;;;;8.30;6.18;;;;;;;43.60;8.65;95271.00;5017741;28;20293;-73
2023/10/13 14:39:36;;;;;;;13.35;6.25;;;;;;;43.31;8.95;95272.19;5027973;28;20225;-72
2023/10/13 14:42:05;;;;;;;9.82;4.18;;;;;;;41.79;9.83;95270.88;5018812;28;20225;-73
2023/10/13 14:44:33;;;;;;;5.20;3.65;;;;;;;39.50;10.86;95267.91;4998472;28;20189;-73
2023/10/13 14:46:59;;;;;;;9.07;4.82;;;;;;;37.28;13.20;95255.81;5021778;28;20312;-73
2023/10/13 14:49:25;;;;;;;6.57;4.32;;;;;;;36.07;14.10;95258.47;5034043;28;20226;-73
2023/10/13 14:51:50;;;;;;;11.23;4.90;;;;;;;36.09;14.59;95256.25;5021694;28;20231;-72
2023/10/13 14:54:16;;;;;;;9.70;6.05;;;;;;;36.00;14.78;95256.13;5059313;28;20224;-73
2023/10/13 14:56:42;;;;;;;11.18;6.00;;;;;;;34.70;15.54;95254.53;5055219;28;20193;-72
2023/10/13 14:59:16;;;;;;;9.75;4.55;;;;;;;33.45;16.81;95252.13;5059478;28;20628;-75
2023/10/13 15:01:42;;;;;;;8.55;4.78;;;;;;;32.31;18.40;95251.50;5054464;28;20314;-73
2023/10/13 15:04:08;;;;;;;8.35;4.50;;;;;;;31.35;19.25;95251.69;5052356;28;20647;-73
2023/10/13 15:06:33;;;;;;;8.40;4.18;;;;;;;30.62;20.25;95248.56;5055950;28;20308;-72
2023/10/13 15:09:00;;;;;;;9.60;4.00;;;;;;;30.00;20.92;95253.94;5057082;28;20216;-72
2023/10/13 15:11:35;;;;;;;6.47;4.40;;;;;;;29.50;21.48;95258.09;5055277;28;20188;-73
2023/10/13 15:14:01;;;;;;;10.68;4.63;;;;;;;29.13;22.21;95256.28;5060126;28;20227;-72
2023/10/13 15:16:27;;;;;;;8.07;4.82;;;;;;;28.74;22.97;95253.88;5054458;28;20224;-73
2023/10/13 15:18:53;;;;;;;9.23;4.50;;;;;;;28.29;23.64;95265.13;5051819;28;20287;-74
2023/10/13 15:21:21;;;;;;;13.45;5.75;;;;;;;28.09;23.98;95263.88;5072039;28;20227;-73
2023/10/13 15:23:47;;;;;;;14.10;6.13;;;;;;;27.78;24.52;95265.41;5056038;28;20199;-73
2023/10/13 15:26:14;;;;;;;14.18;7.68;;;;;;;27.52;25.49;95266.19;5056083;28;20185;-73
2023/10/13 15:28:48;;;;;;;11.90;5.82;;;;;;;27.33;25.60;95261.09;5055433;28;20239;-74
2023/10/13 15:31:26;;;;;;;14.50;9.10;;;;;;;27.02;26.25;95268.75;5055726;28;20706;-73
2023/10/13 15:33:56;;;;;;;12.35;5.82;;;;;;;26.87;26.20;95273.13;5073297;28;21059;-73